Time;durP1;ratioP1;P1;durP2;ratioP2;P2;SDS_P1;SDS_P2;PMS_P1;PMS_P2;Temp;Humidity;BMP_temperature;BMP_pressure;BME280_temperature;BME280_humidity;BME280_pressure;Samples;Min_cycle;Max_cycle;Signal;HPM_P1;HPM_P2
2021/09/17 00:00:25;;;;;;;15.80;13.80;;;;;;;17.87;95.31;96264.58;113993;1205;25010;-83
2021/09/17 00:03:12;;;;;;;16.70;13.20;;;;;;;17.84;95.05;96263.40;114074;1204;26205;-83
2021/09/17 00:05:44;;;;;;;15.30;13.00;;;;;;;17.72;94.79;96264.55;114025;1206;27989;-84
2021/09/17 00:08:15;;;;;;;15.80;13.80;;;;;;;17.68;94.95;96262.63;114012;1201;27041;-83
2021/09/17 00:10:46;;;;;;;17.40;14.00;;;;;;;17.63;94.90;96258.98;114018;1204;27247;-83
2021/09/17 00:13:17;;;;;;;18.10;14.30;;;;;;;17.55;95.00;96259.02;113993;1205;28047;-83
2021/09/17 00:15:48;;;;;;;16.00;14.30;;;;;;;17.57;95.61;96258.31;113976;1206;26042;-83
2021/09/17 00:18:19;;;;;;;16.00;14.10;;;;;;;17.61;95.79;96255.02;113987;1206;26137;-84
2021/09/17 00:20:50;;;;;;;17.20;13.40;;;;;;;17.66;95.82;96250.69;114009;1200;34790;-83
2021/09/17 00:23:21;;;;;;;18.00;15.30;;;;;;;17.72;95.84;96246.82;113955;1205;29289;-83
2021/09/17 00:25:52;;;;;;;16.60;14.80;;;;;;;17.77;95.61;96250.38;114010;1205;27326;-83
2021/09/17 00:28:23;;;;;;;18.70;15.20;;;;;;;17.75;95.46;96245.80;114007;1205;28067;-83
2021/09/17 00:30:54;;;;;;;19.30;15.20;;;;;;;17.77;95.54;96245.70;113991;1205;32492;-84
2021/09/17 00:33:25;;;;;;;19.10;16.30;;;;;;;17.79;95.61;96243.95;113979;1212;28706;-84
2021/09/17 00:35:56;;;;;;;18.90;15.40;;;;;;;17.78;95.54;96237.92;113974;1209;31131;-83
2021/09/17 00:38:27;;;;;;;20.90;14.90;;;;;;;17.77;95.53;96235.08;113991;1205;29573;-83
2021/09/17 00:40:59;;;;;;;19.40;15.70;;;;;;;17.81;95.66;96237.33;114001;1205;30862;-84
2021/09/17 00:43:30;;;;;;;24.30;19.40;;;;;;;17.81;95.61;96235.27;114002;1209;27266;-83
2021/09/17 00:46:01;;;;;;;19.70;16.60;;;;;;;17.80;95.59;96233.23;113955;1207;25774;-83
2021/09/17 00:48:32;;;;;;;19.90;16.40;;;;;;;17.83;95.68;96235.09;113951;1205;24149;-83
2021/09/17 00:51:03;;;;;;;22.60;18.10;;;;;;;17.86;95.76;96232.34;113974;1205;34762;-84
2021/09/17 00:53:35;;;;;;;20.80;18.10;;;;;;;17.90;95.73;96230.64;113974;1200;29475;-83
2021/09/17 00:56:07;;;;;;;22.40;18.10;;;;;;;17.93;95.63;96229.20;113978;1205;28944;-83
2021/09/17 00:58:38;;;;;;;23.00;19.80;;;;;;;17.94;95.56;96226.19;113956;1212;30260;-85
2021/09/17 01:01:09;;;;;;;23.20;19.70;;;;;;;17.95;95.45;96220.91;113995;1204;28209;-83
2021/09/17 01:03:41;;;;;;;26.30;19.50;;;;;;;17.90;95.25;96212.58;114053;1205;25663;-83
2021/09/17 01:06:12;;;;;;;22.80;19.00;;;;;;;17.83;95.12;96206.36;114050;1205;25010;-82
2021/09/17 01:08:43;;;;;;;21.50;17.20;;;;;;;17.75;95.11;96205.51;114032;1212;25310;-83
2021/09/17 01:11:15;;;;;;;19.10;15.50;;;;;;;17.66;95.28;96202.66;113984;1212;31319;-82
2021/09/17 01:13:47;;;;;;;19.40;15.70;;;;;;;17.65;95.70;96204.21;113947;1209;29313;-83
2021/09/17 01:16:19;;;;;;;20.40;16.10;;;;;;;17.71;96.04;96203.44;113965;1205;27275;-83
2021/09/17 01:18:52;;;;;;;19.60;16.30;;;;;;;17.76;96.10;96202.10;113950;1205;28034;-82
2021/09/17 01:21:24;;;;;;;18.50;15.50;;;;;;;17.79;96.04;96196.66;113991;1207;26449;-83
2021/09/17 01:23:55;;;;;;;18.90;15.90;;;;;;;17.73;95.74;96195.27;113917;1205;36203;-83
2021/09/17 01:26:26;;;;;;;17.90;15.10;;;;;;;17.70;95.78;96191.73;113871;1209;83266;-83
2021/09/17 01:28:57;;;;;;;18.90;15.30;;;;;;;17.66;95.86;96189.69;113956;1207;31410;-82
2021/09/17 01:31:28;;;;;;;20.60;17.00;;;;;;;17.70;96.23;96187.92;113960;1206;28975;-83
2021/09/17 01:34:08;;;;;;;19.30;16.10;;;;;;;17.76;96.32;96185.25;113990;1205;27809;-84
2021/09/17 01:36:39;;;;;;;18.10;16.20;;;;;;;17.81;96.29;96178.48;114019;1205;28269;-84
2021/09/17 01:39:10;;;;;;;20.90;16.10;;;;;;;17.85;96.28;96174.31;114014;1205;29660;-85
2021/09/17 01:41:41;;;;;;;22.20;18.10;;;;;;;17.80;95.91;96170.65;114023;1206;29348;-83
2021/09/17 01:44:12;;;;;;;22.00;18.40;;;;;;;17.67;95.50;96162.11;114002;1205;27536;-83
2021/09/17 01:46:43;;;;;;;23.60;18.60;;;;;;;17.56;95.68;96165.39;113953;1205;29074;-83
2021/09/17 01:49:14;;;;;;;25.60;20.50;;;;;;;17.47;95.92;96167.36;113966;1205;26529;-82
2021/09/17 01:51:46;;;;;;;28.50;21.90;;;;;;;17.41;96.14;96161.75;113937;1212;27365;-82
2021/09/17 01:54:17;;;;;;;29.30;23.00;;;;;;;17.36;96.49;96159.48;113962;1207;26208;-83
2021/09/17 01:56:48;;;;;;;29.50;22.00;;;;;;;17.36;96.91;96156.80;113935;1207;24980;-84
2021/09/17 01:59:19;;;;;;;30.20;23.30;;;;;;;17.36;97.01;96157.02;113935;1205;31039;-83
2021/09/17 02:01:50;;;;;;;32.30;24.00;;;;;;;17.36;97.10;96156.39;113974;1205;27646;-83
2021/09/17 02:04:21;;;;;;;33.50;25.30;;;;;;;17.34;97.17;96153.64;113891;1204;28296;-84
2021/09/17 02:06:52;;;;;;;33.60;26.30;;;;;;;17.32;97.25;96151.59;113945;1204;26555;-83
2021/09/17 02:09:23;;;;;;;35.90;26.30;;;;;;;17.31;97.46;96147.73;113924;1204;26076;-84
2021/09/17 02:11:54;;;;;;;35.60;26.80;;;;;;;17.30;97.48;96141.41;113911;1206;27874;-83
2021/09/17 02:14:25;;;;;;;35.70;27.10;;;;;;;17.29;97.56;96145.58;113912;1206;28101;-82
2021/09/17 02:16:56;;;;;;;34.90;26.80;;;;;;;17.26;97.69;96142.59;113913;1209;26929;-84
2021/09/17 02:19:27;;;;;;;30.40;24.10;;;;;;;17.26;97.88;96141.90;113954;1212;30475;-85
2021/09/17 02:21:58;;;;;;;37.10;26.60;;;;;;;17.28;98.08;96139.83;113948;1205;24349;-83
2021/09/17 02:24:30;;;;;;;36.50;25.20;;;;;;;17.30;98.23;96135.67;113903;1209;28226;-82
2021/09/17 02:27:01;;;;;;;33.00;24.10;;;;;;;17.32;98.33;96127.46;113974;1205;25533;-83
2021/09/17 02:29:32;;;;;;;31.10;23.20;;;;;;;17.40;98.52;96124.59;113937;1205;34778;-83
2021/09/17 02:32:04;;;;;;;30.10;22.90;;;;;;;17.47;98.54;96123.23;113986;1211;29583;-84
2021/09/17 02:34:35;;;;;;;31.30;24.10;;;;;;;17.50;98.33;96117.05;113981;1207;29484;-83
2021/09/17 02:37:06;;;;;;;30.40;23.80;;;;;;;17.48;98.11;96117.46;113987;1204;24905;-83
2021/09/17 02:39:38;;;;;;;33.40;24.10;;;;;;;17.45;97.91;96114.57;113963;1205;25459;-83
2021/09/17 02:42:09;;;;;;;30.20;23.00;;;;;;;17.41;97.97;96107.94;113985;1205;26295;-82
2021/09/17 02:44:40;;;;;;;29.90;23.70;;;;;;;17.39;98.07;96106.20;114021;1205;28083;-83
2021/09/17 02:47:11;;;;;;;36.00;24.70;;;;;;;17.38;98.14;96107.54;113826;1206;28677;-83
2021/09/17 02:49:42;;;;;;;32.80;25.20;;;;;;;17.37;98.21;96104.21;113999;1205;28016;-83
2021/09/17 02:52:14;;;;;;;34.50;25.50;;;;;;;17.34;98.22;96099.77;113870;1205;29223;-83
2021/09/17 02:54:45;;;;;;;32.10;23.40;;;;;;;17.33;98.33;96101.17;113939;1205;59804;-82
2021/09/17 02:57:16;;;;;;;34.10;24.80;;;;;;;17.36;98.56;96099.91;113934;1207;28803;-82
2021/09/17 02:59:47;;;;;;;34.60;26.10;;;;;;;17.43;98.68;96099.20;113922;1205;29363;-82
2021/09/17 03:02:19;;;;;;;35.50;25.30;;;;;;;17.41;98.40;96096.08;113954;1205;26964;-82
2021/09/17 03:04:50;;;;;;;35.90;25.00;;;;;;;17.38;98.38;96095.36;113723;1205;27503;-84
2021/09/17 03:07:21;;;;;;;33.20;24.70;;;;;;;17.36;98.36;96092.46;113738;1205;27477;-84
2021/09/17 03:09:52;;;;;;;31.80;24.40;;;;;;;17.31;98.34;96088.55;113713;1200;30017;-83
2021/09/17 03:12:24;;;;;;;30.60;23.50;;;;;;;17.26;98.44;96083.95;113751;1207;28999;-83
2021/09/17 03:14:55;;;;;;;31.60;23.30;;;;;;;17.21;98.41;96082.67;113863;1205;34866;-84
2021/09/17 03:17:26;;;;;;;31.50;22.80;;;;;;;17.15;98.36;96082.67;113877;1207;28491;-83
2021/09/17 03:19:57;;;;;;;28.90;21.60;;;;;;;17.16;99.05;96078.06;113940;1205;29186;-83
2021/09/17 03:22:28;;;;;;;30.60;21.70;;;;;;;17.21;99.23;96072.80;113749;1204;28061;-84
2021/09/17 03:24:59;;;;;;;29.90;22.90;;;;;;;17.22;99.23;96066.63;113882;1207;33272;-84
2021/09/17 03:27:30;;;;;;;28.00;20.70;;;;;;;17.23;99.33;96063.36;113912;1206;25649;-84
2021/09/17 03:30:02;;;;;;;30.20;21.80;;;;;;;17.22;99.15;96065.39;113855;1206;26569;-84
2021/09/17 03:32:33;;;;;;;31.90;22.60;;;;;;;17.18;99.10;96061.54;113714;1205;26891;-83
2021/09/17 03:35:04;;;;;;;29.90;21.80;;;;;;;17.20;99.38;96054.86;113714;1206;27928;-84
2021/09/17 03:37:35;;;;;;;30.30;21.70;;;;;;;17.19;99.29;96060.48;113918;1204;34728;-83
2021/09/17 03:40:08;;;;;;;28.80;20.80;;;;;;;17.17;99.32;96056.88;113898;1206;44521;-83
2021/09/17 03:42:40;;;;;;;30.20;21.50;;;;;;;17.19;99.47;96056.05;113921;1204;29466;-83
2021/09/17 03:45:12;;;;;;;27.20;20.40;;;;;;;17.17;99.45;96056.06;113962;1205;28013;-84
2021/09/17 03:47:43;;;;;;;26.90;19.20;;;;;;;17.19;99.61;96051.63;113891;1205;26104;-83
2021/09/17 03:50:14;;;;;;;26.90;19.80;;;;;;;17.22;99.69;96050.70;113977;1206;29043;-83
2021/09/17 03:52:45;;;;;;;27.10;19.50;;;;;;;17.27;99.73;96049.30;113922;1206;26410;-82
2021/09/17 03:55:16;;;;;;;27.50;19.60;;;;;;;17.30;99.73;96048.10;113872;1207;58790;-83
2021/09/17 03:57:47;;;;;;;25.30;19.10;;;;;;;17.30;99.53;96041.52;113664;1206;55362;-84
2021/09/17 04:00:21;;;;;;;22.30;16.30;;;;;;;17.26;99.38;96038.64;113969;1205;26475;-84
2021/09/17 04:02:52;;;;;;;24.70;17.40;;;;;;;17.24;99.31;96041.05;113904;1205;59962;-84
2021/09/17 04:05:25;;;;;;;21.30;16.50;;;;;;;17.23;99.53;96040.77;113946;1200;27078;-84
2021/09/17 04:07:56;;;;;;;21.30;16.20;;;;;;;17.28;99.76;96039.77;113928;1205;50716;-84
2021/09/17 04:10:27;;;;;;;21.00;15.30;;;;;;;17.32;99.76;96038.30;113928;1205;49682;-85
2021/09/17 04:12:59;;;;;;;21.40;15.50;;;;;;;17.33;99.63;96037.44;113905;1206;54265;-85
2021/09/17 04:15:30;;;;;;;19.20;14.10;;;;;;;17.33;99.61;96042.70;113967;1205;56743;-84
2021/09/17 04:18:01;;;;;;;21.10;15.00;;;;;;;17.36;99.72;96042.17;113917;1207;68479;-84
2021/09/17 04:20:32;;;;;;;21.30;16.00;;;;;;;17.39;99.68;96038.29;113956;1207;27721;-84
2021/09/17 04:23:03;;;;;;;20.10;14.80;;;;;;;17.38;99.38;96038.27;113884;1205;57710;-84
2021/09/17 04:25:35;;;;;;;20.20;15.50;;;;;;;17.35;99.24;96038.77;113964;1205;25556;-84
2021/09/17 04:28:07;;;;;;;20.90;15.80;;;;;;;17.32;99.30;96037.39;113953;1205;40414;-84
2021/09/17 04:30:38;;;;;;;20.10;15.50;;;;;;;17.32;99.24;96033.40;113844;1206;25678;-84
2021/09/17 04:33:14;;;;;;;17.50;14.40;;;;;;;17.31;99.26;96032.80;113926;1205;24486;-84
2021/09/17 04:35:46;;;;;;;19.40;14.30;;;;;;;17.32;99.32;96031.27;113811;1200;63061;-84
2021/09/17 04:38:17;;;;;;;20.50;14.00;;;;;;;17.34;99.42;96030.78;113860;1204;66859;-84
2021/09/17 04:40:49;;;;;;;18.80;14.70;;;;;;;17.36;99.53;96028.16;113802;1205;49343;-85
2021/09/17 04:43:20;;;;;;;19.20;14.00;;;;;;;17.40;99.53;96025.23;113880;1204;48672;-84
2021/09/17 04:45:51;;;;;;;16.30;12.50;;;;;;;17.41;99.43;96015.53;113883;1205;55360;-84
2021/09/17 04:48:23;;;;;;;18.20;13.10;;;;;;;17.41;99.31;96014.08;113926;1205;42126;-84
2021/09/17 04:50:55;;;;;;;15.30;12.30;;;;;;;17.39;99.08;96014.80;113784;1205;56515;-84
2021/09/17 04:53:27;;;;;;;16.50;12.30;;;;;;;17.38;99.12;96015.00;113887;1205;55737;-84
2021/09/17 04:55:58;;;;;;;15.20;12.10;;;;;;;17.40;99.21;96012.44;113895;1205;58312;-84
2021/09/17 04:58:29;;;;;;;13.90;10.80;;;;;;;17.39;99.05;96016.61;113815;1204;64695;-83
2021/09/17 05:01:00;;;;;;;13.90;10.50;;;;;;;17.37;99.09;96015.04;113833;1204;58908;-84
2021/09/17 05:03:32;;;;;;;13.10;10.00;;;;;;;17.35;99.09;96013.54;113785;1207;56483;-83
2021/09/17 05:06:03;;;;;;;15.50;10.10;;;;;;;17.36;99.08;96010.35;113965;1210;52159;-84
2021/09/17 05:08:34;;;;;;;12.10;9.40;;;;;;;17.37;99.13;96011.35;113762;1205;57219;-83
2021/09/17 05:11:06;;;;;;;12.60;9.60;;;;;;;17.38;99.13;96008.55;113869;1204;61679;-85
2021/09/17 05:13:38;;;;;;;12.40;9.40;;;;;;;17.38;99.05;96010.00;113923;1204;41750;-84
2021/09/17 05:16:09;;;;;;;11.80;9.20;;;;;;;17.34;98.83;96005.45;113735;1206;58171;-85
2021/09/17 05:18:43;;;;;;;12.20;8.70;;;;;;;17.32;98.91;96003.02;113964;1204;54337;-84
2021/09/17 05:21:16;;;;;;;11.50;8.70;;;;;;;17.31;98.94;96002.37;113782;1205;64374;-84
2021/09/17 05:23:47;;;;;;;10.70;8.20;;;;;;;17.29;98.91;96007.96;113893;1212;48787;-84
2021/09/17 05:26:19;;;;;;;8.80;6.70;;;;;;;17.29;98.99;96007.05;113914;1205;53216;-84
2021/09/17 05:28:50;;;;;;;7.30;5.70;;;;;;;17.29;98.97;96003.67;113820;1206;53940;-84
2021/09/17 05:31:22;;;;;;;6.50;5.10;;;;;;;17.27;99.08;96004.69;113919;1200;58452;-83
2021/09/17 05:33:53;;;;;;;7.40;5.50;;;;;;;17.27;99.11;96003.31;112322;1205;2022161;-83
2021/09/17 05:36:24;;;;;;;6.20;4.70;;;;;;;17.25;98.98;96002.93;113884;1204;59185;-83
2021/09/17 05:38:55;;;;;;;6.50;5.00;;;;;;;17.22;99.02;96002.48;113880;1205;57248;-83
2021/09/17 05:41:27;;;;;;;6.10;4.40;;;;;;;17.18;98.91;96001.98;113987;1204;27312;-83
2021/09/17 05:43:58;;;;;;;6.70;3.90;;;;;;;17.16;99.14;96001.89;113906;1204;55205;-84
2021/09/17 05:46:29;;;;;;;4.00;3.20;;;;;;;17.13;98.95;96004.71;113930;1205;27710;-83
2021/09/17 05:49:01;;;;;;;4.50;3.50;;;;;;;17.10;98.94;96003.17;113940;1205;27389;-82
2021/09/17 05:51:32;;;;;;;3.70;3.10;;;;;;;17.11;99.09;96004.65;113815;1205;58392;-83
2021/09/17 05:54:03;;;;;;;6.40;3.80;;;;;;;17.13;99.14;96005.93;113803;1205;27671;-84
2021/09/17 05:56:34;;;;;;;5.90;4.20;;;;;;;17.12;98.91;96009.96;110121;1201;4677226;-83
2021/09/17 05:59:06;;;;;;;5.50;4.30;;;;;;;17.04;98.62;96018.45;113858;1205;29997;-85
2021/09/17 06:01:39;;;;;;;5.50;4.30;;;;;;;17.04;98.70;96021.95;113753;1205;29274;-83
2021/09/17 06:04:12;;;;;;;7.40;5.00;;;;;;;17.03;98.57;96025.39;114051;1205;31593;-83
2021/09/17 06:06:46;;;;;;;6.00;3.90;;;;;;;17.03;98.43;96026.30;114070;1200;55695;-84
2021/09/17 06:09:17;;;;;;;2.90;1.70;;;;;;;16.95;97.79;96023.74;114030;1204;30080;-82
2021/09/17 06:11:48;;;;;;;1.30;0.90;;;;;;;16.80;97.05;96021.61;114031;1205;48147;-83
2021/09/17 06:14:20;;;;;;;1.10;0.50;;;;;;;16.72;96.64;96017.15;113962;1206;27573;-82
2021/09/17 06:16:51;;;;;;;0.40;0.40;;;;;;;16.69;96.32;96019.79;114070;1204;25196;-82
2021/09/17 06:19:23;;;;;;;0.50;0.30;;;;;;;16.61;95.85;96023.58;114054;1205;27009;-82
2021/09/17 06:21:54;;;;;;;1.70;1.20;;;;;;;16.54;95.48;96031.17;114101;1198;30855;-82
2021/09/17 06:24:25;;;;;;;2.80;2.00;;;;;;;16.37;94.80;96045.60;114052;1205;87832;-82
2021/09/17 06:26:57;;;;;;;2.10;1.80;;;;;;;16.25;94.30;96062.13;114062;1204;28436;-82
2021/09/17 06:29:27;;;;;;;1.50;1.10;;;;;;;16.16;94.11;96085.95;113966;1205;29491;-82
2021/09/17 06:31:59;;;;;;;4.30;3.20;;;;;;;16.14;94.26;96095.27;114063;1204;28825;-83
2021/09/17 06:34:30;;;;;;;1.20;1.10;;;;;;;16.14;94.10;96099.15;114041;1207;27062;-83
2021/09/17 06:37:01;;;;;;;1.20;0.90;;;;;;;15.96;93.74;96103.80;114044;1205;27445;-82
2021/09/17 06:39:32;;;;;;;0.80;0.40;;;;;;;15.83;93.85;96110.91;114059;1204;29948;-83
2021/09/17 06:42:04;;;;;;;0.40;0.30;;;;;;;15.79;93.68;96107.41;114026;1204;28948;-83
2021/09/17 06:44:35;;;;;;;0.50;0.30;;;;;;;15.71;93.00;96103.82;114060;1205;44604;-82
2021/09/17 06:47:06;;;;;;;0.60;0.50;;;;;;;15.63;92.43;96102.36;113931;1200;28631;-81
2021/09/17 06:49:37;;;;;;;0.40;0.40;;;;;;;15.52;92.33;96106.25;114004;1206;28730;-82
2021/09/17 06:52:09;;;;;;;0.90;0.50;;;;;;;15.51;92.59;96110.10;114012;1205;32000;-82
2021/09/17 06:54:40;;;;;;;0.90;0.70;;;;;;;15.49;92.28;96107.81;113949;1205;30775;-82
2021/09/17 06:57:11;;;;;;;1.70;1.10;;;;;;;15.39;91.58;96115.95;114019;1205;26210;-82
2021/09/17 06:59:44;;;;;;;1.50;1.10;;;;;;;15.33;91.37;96116.70;114008;1205;24883;-84
2021/09/17 07:02:15;;;;;;;0.80;0.80;;;;;;;15.22;90.74;96121.30;114026;1206;26568;-80
2021/09/17 07:04:46;;;;;;;1.20;1.10;;;;;;;15.16;90.82;96122.79;113877;1205;62112;-81
2021/09/17 07:07:17;;;;;;;1.10;0.90;;;;;;;15.08;90.60;96132.40;113926;1205;81221;-82
2021/09/17 07:09:48;;;;;;;0.70;0.60;;;;;;;15.06;90.86;96136.73;113970;1205;37215;-81
2021/09/17 07:12:19;;;;;;;0.70;0.70;;;;;;;15.07;90.78;96144.84;113936;1205;89622;-81
2021/09/17 07:14:50;;;;;;;0.80;0.70;;;;;;;15.06;90.57;96142.14;113927;1206;26634;-83
2021/09/17 07:17:21;;;;;;;0.60;0.50;;;;;;;14.97;90.13;96135.75;113932;1205;27098;-83
2021/09/17 07:19:52;;;;;;;1.30;0.70;;;;;;;14.94;90.71;96137.27;113895;1205;31041;-82
2021/09/17 07:22:23;;;;;;;1.00;0.50;;;;;;;14.98;91.04;96138.51;114028;1205;25712;-82
2021/09/17 07:24:54;;;;;;;0.60;0.50;;;;;;;15.04;91.12;96141.50;113900;1206;25312;-82
2021/09/17 07:27:26;;;;;;;0.50;0.50;;;;;;;15.02;90.68;96144.34;113950;1205;23922;-82
2021/09/17 07:29:57;;;;;;;0.70;0.60;;;;;;;15.00;90.69;96145.09;113923;1206;24272;-82
2021/09/17 07:32:29;;;;;;;0.90;0.80;;;;;;;14.96;90.77;96151.39;113927;1205;28553;-83
2021/09/17 07:35:00;;;;;;;1.30;0.90;;;;;;;14.88;90.80;96154.50;113928;1205;30701;-83
2021/09/17 07:37:31;;;;;;;0.60;0.60;;;;;;;14.81;90.94;96154.37;113908;1205;42211;-82
2021/09/17 07:40:02;;;;;;;0.90;0.70;;;;;;;14.73;90.99;96155.91;113934;1205;29711;-82
2021/09/17 07:42:34;;;;;;;1.10;0.60;;;;;;;14.73;91.42;96161.17;113938;1205;27298;-82
2021/09/17 07:45:06;;;;;;;1.00;0.90;;;;;;;14.75;91.52;96161.05;113939;1205;37578;-83
2021/09/17 07:47:37;;;;;;;0.90;0.80;;;;;;;14.76;91.71;96162.63;114021;1205;43425;-82
2021/09/17 07:50:12;;;;;;;0.90;0.70;;;;;;;14.86;92.05;96166.70;113980;1204;29545;-82
2021/09/17 07:52:44;;;;;;;0.50;0.50;;;;;;;14.87;91.52;96164.21;114086;1204;28982;-83
2021/09/17 07:55:15;;;;;;;0.80;0.60;;;;;;;14.79;91.15;96166.46;114119;1207;28687;-83
2021/09/17 07:57:46;;;;;;;0.90;0.70;;;;;;;14.75;91.03;96176.49;114224;1206;26217;-81
2021/09/17 08:00:18;;;;;;;1.10;1.00;;;;;;;14.70;90.33;96179.58;114129;1206;55483;-82
2021/09/17 08:02:49;;;;;;;1.00;0.80;;;;;;;14.66;90.14;96188.86;114232;1205;35232;-82
2021/09/17 08:05:20;;;;;;;1.20;1.10;;;;;;;14.60;89.89;96189.55;114189;1204;29037;-83
2021/09/17 08:07:55;;;;;;;0.80;0.80;;;;;;;14.61;90.16;96193.17;114208;1205;28798;-81
2021/09/17 08:10:26;;;;;;;0.80;0.80;;;;;;;14.61;90.04;96199.13;114154;1207;26855;-81
2021/09/17 08:12:57;;;;;;;1.40;1.20;;;;;;;14.60;90.03;96201.60;113891;1204;28852;-83
2021/09/17 08:15:29;;;;;;;1.20;1.10;;;;;;;14.62;90.26;96203.30;113894;1205;27815;-83
2021/09/17 08:18:00;;;;;;;0.70;0.70;;;;;;;14.65;90.32;96206.17;113864;1204;29072;-83
2021/09/17 08:20:31;;;;;;;1.20;0.70;;;;;;;14.65;90.31;96210.98;113984;1204;29857;-82
2021/09/17 08:23:03;;;;;;;0.90;0.80;;;;;;;14.63;90.21;96215.67;113935;1204;29016;-83
2021/09/17 08:25:34;;;;;;;0.90;0.60;;;;;;;14.46;89.57;96219.82;113910;1205;26952;-82
2021/09/17 08:28:05;;;;;;;0.50;0.50;;;;;;;14.39;89.76;96224.04;113872;1206;33133;-81
2021/09/17 08:30:36;;;;;;;2.00;0.50;;;;;;;14.29;89.59;96224.80;113956;1205;30594;-83
2021/09/17 08:33:07;;;;;;;0.70;0.70;;;;;;;14.20;89.53;96232.30;113895;1204;25918;-83
2021/09/17 08:35:41;;;;;;;0.60;0.40;;;;;;;14.20;89.69;96225.42;113908;1204;26127;-84
2021/09/17 08:38:12;;;;;;;1.10;0.60;;;;;;;14.15;89.40;96225.42;113937;1204;53606;-84
2021/09/17 08:40:43;;;;;;;0.60;0.40;;;;;;;14.11;89.63;96225.33;113850;1211;59978;-84
2021/09/17 08:43:15;;;;;;;1.30;0.60;;;;;;;14.09;89.73;96221.81;113919;1204;58592;-84
2021/09/17 08:45:46;;;;;;;0.40;0.20;;;;;;;14.09;89.75;96223.30;113885;1205;60382;-83
2021/09/17 08:48:18;;;;;;;0.70;0.30;;;;;;;14.07;89.58;96214.39;113922;1206;48552;-84
2021/09/17 08:50:51;;;;;;;0.80;0.50;;;;;;;14.00;89.43;96212.61;113900;1205;51759;-84
2021/09/17 08:53:24;;;;;;;0.40;0.30;;;;;;;13.99;89.52;96211.58;113847;1197;60752;-84
2021/09/17 08:55:58;;;;;;;0.70;0.60;;;;;;;13.96;89.57;96210.01;113907;1206;26791;-83
2021/09/17 08:58:29;;;;;;;0.80;0.70;;;;;;;13.85;89.12;96207.59;113872;1204;57777;-82
2021/09/17 09:01:01;;;;;;;0.60;0.60;;;;;;;13.75;89.52;96214.00;113888;1205;53679;-84
2021/09/17 09:03:34;;;;;;;0.50;0.50;;;;;;;13.76;89.69;96213.54;113863;1206;59385;-84
2021/09/17 09:06:16;;;;;;;0.80;0.70;;;;;;;13.72;89.56;96218.98;113810;1204;57273;-83
2021/09/17 09:08:50;;;;;;;0.60;0.50;;;;;;;13.68;89.66;96215.84;113862;1197;51435;-82
2021/09/17 09:11:25;;;;;;;2.90;1.30;;;;;;;13.63;89.40;96217.24;113980;1205;42554;-82
2021/09/17 09:14:13;;;;;;;0.80;0.70;;;;;;;13.59;89.54;96220.64;113855;1204;28354;-83
2021/09/17 09:16:49;;;;;;;2.60;1.10;;;;;;;13.59;89.67;96225.16;113976;1204;27259;-82
2021/09/17 09:19:28;;;;;;;0.70;0.50;;;;;;;13.58;89.66;96224.50;113842;1200;56437;-83
2021/09/17 09:22:14;;;;;;;1.10;0.60;;;;;;;13.62;89.75;96229.93;113891;1205;56396;-83
2021/09/17 09:24:47;;;;;;;1.20;0.70;;;;;;;13.70;89.70;96224.42;113878;1206;52720;-79
2021/09/17 09:27:21;;;;;;;0.50;0.50;;;;;;;13.70;89.62;96227.66;113880;1205;67098;-83
2021/09/17 09:29:53;;;;;;;1.20;0.60;;;;;;;13.75;89.55;96226.63;113941;1198;25777;-83
2021/09/17 09:32:31;;;;;;;0.80;0.60;;;;;;;13.75;89.28;96227.79;113900;1207;28853;-84
2021/09/17 09:35:04;;;;;;;1.00;0.60;;;;;;;13.78;89.52;96228.34;113969;1207;27114;-83
2021/09/17 09:37:39;;;;;;;0.70;0.50;;;;;;;13.86;89.65;96232.52;113903;1204;31102;-83
2021/09/17 09:40:17;;;;;;;1.10;0.60;;;;;;;13.82;89.15;96223.75;114043;1204;61057;-82
2021/09/17 09:42:49;;;;;;;1.70;0.80;;;;;;;13.79;89.23;96223.52;114051;1204;30598;-82
2021/09/17 09:45:22;;;;;;;1.60;1.00;;;;;;;13.73;89.15;96226.10;114007;1204;28614;-82
2021/09/17 09:47:55;;;;;;;2.20;1.10;;;;;;;13.56;88.93;96229.25;113963;1210;56614;-82
2021/09/17 09:50:27;;;;;;;1.20;0.70;;;;;;;13.48;89.29;96228.55;114009;1205;50697;-83
2021/09/17 09:53:01;;;;;;;1.80;0.90;;;;;;;13.45;89.41;96227.46;112414;1206;2014543;-82
2021/09/17 09:55:33;;;;;;;1.70;0.50;;;;;;;13.48;89.66;96222.21;113968;1205;30920;-82
2021/09/17 09:58:06;;;;;;;0.90;0.80;;;;;;;13.49;89.54;96226.06;114096;1204;34194;-82
2021/09/17 10:00:37;;;;;;;1.70;1.00;;;;;;;13.47;89.36;96228.32;114015;1204;27733;-82
2021/09/17 10:03:09;;;;;;;1.40;0.80;;;;;;;13.43;89.37;96230.94;113865;1204;28709;-83
2021/09/17 10:05:40;;;;;;;1.30;0.80;;;;;;;13.47;89.44;96235.93;113899;1204;35117;-82
2021/09/17 10:08:12;;;;;;;1.60;1.10;;;;;;;13.45;88.73;96239.75;113888;1207;28012;-83
2021/09/17 10:10:45;;;;;;;1.90;1.00;;;;;;;13.44;89.05;96238.08;113998;1204;30681;-83
2021/09/17 10:13:16;;;;;;;1.60;1.00;;;;;;;13.50;89.31;96232.70;113883;1206;29180;-82
2021/09/17 10:15:47;;;;;;;1.20;0.80;;;;;;;13.56;89.34;96231.10;113844;1205;25497;-82
2021/09/17 10:18:20;;;;;;;1.50;1.30;;;;;;;13.54;88.90;96229.91;113869;1206;32818;-81
2021/09/17 10:20:52;;;;;;;2.10;1.30;;;;;;;13.55;89.25;96229.37;113855;1211;29681;-83
2021/09/17 10:23:31;;;;;;;2.20;1.20;;;;;;;13.55;89.16;96231.19;113820;1204;30813;-82
2021/09/17 10:26:05;;;;;;;1.00;0.90;;;;;;;13.59;89.04;96222.99;113836;1207;31519;-84
2021/09/17 10:28:57;;;;;;;1.80;1.10;;;;;;;13.49;88.64;96220.23;113872;1207;32725;-84
2021/09/17 10:31:40;;;;;;;0.90;0.80;;;;;;;13.43;88.92;96223.41;113878;1204;26424;-82
2021/09/17 10:34:36;;;;;;;2.00;0.90;;;;;;;13.48;89.36;96222.75;113954;1204;32763;-82
2021/09/17 10:37:09;;;;;;;1.70;1.20;;;;;;;13.55;89.38;96217.88;113889;1207;33256;-82
2021/09/17 10:39:40;;;;;;;0.90;0.90;;;;;;;13.65;89.61;96220.54;113851;1206;36932;-82
2021/09/17 10:42:17;;;;;;;1.10;1.00;;;;;;;13.74;89.52;96219.30;113819;1207;32931;-83
2021/09/17 10:45:20;;;;;;;1.20;1.10;;;;;;;13.61;88.94;96215.48;113863;1204;27079;-83
2021/09/17 10:48:02;;;;;;;1.90;1.10;;;;;;;13.59;89.70;96215.58;113824;1207;32594;-83
2021/09/17 10:50:57;;;;;;;1.50;1.40;;;;;;;13.66;89.86;96224.04;113934;1206;30966;-83
2021/09/17 10:53:59;;;;;;;1.30;1.10;;;;;;;13.65;89.59;96220.02;113695;1206;27164;-83
2021/09/17 10:56:51;;;;;;;0.80;0.70;;;;;;;13.48;89.15;96211.07;113799;1206;35572;-82
2021/09/17 10:59:25;;;;;;;1.50;0.90;;;;;;;13.35;89.64;96217.48;113849;1207;26545;-83
2021/09/17 11:02:00;;;;;;;1.20;1.10;;;;;;;13.30;90.06;96223.63;113868;1205;56963;-82
2021/09/17 11:04:33;;;;;;;1.30;0.90;;;;;;;13.40;90.28;96221.30;113790;1206;39865;-81
2021/09/17 11:07:34;;;;;;;1.80;1.20;;;;;;;13.52;90.28;96222.27;113784;1206;34923;-82
2021/09/17 11:10:24;;;;;;;0.90;0.80;;;;;;;13.66;90.30;96227.07;113866;1207;29051;-82
2021/09/17 11:13:07;;;;;;;2.60;1.40;;;;;;;13.78;90.33;96226.56;113849;1205;26874;-84
2021/09/17 11:15:39;;;;;;;1.20;0.90;;;;;;;13.82;89.80;96226.70;113787;1205;35348;-82
2021/09/17 11:18:20;;;;;;;3.10;1.70;;;;;;;13.91;90.08;96227.42;113836;1206;29245;-82
2021/09/17 11:20:51;;;;;;;1.10;0.80;;;;;;;13.98;89.83;96224.13;113943;1206;29138;-82
2021/09/17 11:23:35;;;;;;;1.40;1.30;;;;;;;13.97;89.38;96218.10;113839;1207;30772;-82
2021/09/17 11:26:06;;;;;;;1.30;0.90;;;;;;;13.92;89.09;96219.27;113690;1206;38630;-82
2021/09/17 11:28:37;;;;;;;0.90;0.80;;;;;;;14.03;89.38;96220.42;113858;1205;31114;-82
2021/09/17 11:31:14;;;;;;;1.30;0.70;;;;;;;14.02;88.79;96223.16;113847;1205;34428;-82
2021/09/17 11:33:55;;;;;;;2.00;1.80;;;;;;;13.90;88.59;96224.98;113797;1207;31662;-81
2021/09/17 11:36:41;;;;;;;0.80;0.70;;;;;;;14.02;89.25;96226.36;113764;1206;26523;-83
2021/09/17 11:39:22;;;;;;;2.40;2.20;;;;;;;14.14;89.63;96223.10;113838;1210;69273;-82
2021/09/17 11:41:56;;;;;;;1.10;0.90;;;;;;;14.20;89.23;96224.83;113822;1205;33623;-83